Time;durP1;ratioP1;P1;durP2;ratioP2;P2;SDS_P1;SDS_P2;PMS_P1;PMS_P2;Temp;Humidity;BMP_temperature;BMP_pressure;BME280_temperature;BME280_humidity;BME280_pressure;Samples;Min_cycle;Max_cycle;Signal;HPM_P1;HPM_P2
2022/02/23 00:01:44;;;;;;;;;;;5.90;99.90;;;;;;5089390;28;19955;-78
2022/02/23 00:04:09;;;;;;;;;;;5.90;99.90;;;;;;5087493;28;19937;-78
2022/02/23 00:06:35;;;;;;;;;;;5.80;99.90;;;;;;5096006;28;19913;-78
2022/02/23 00:09:01;;;;;;;;;;;5.80;99.90;;;;;;5109327;28;19919;-82
2022/02/23 00:11:26;;;;;;;;;;;5.80;99.90;;;;;;5081419;28;19970;-78
2022/02/23 00:13:52;;;;;;;;;;;5.90;99.90;;;;;;5111197;28;19919;-78
2022/02/23 00:16:17;;;;;;;;;;;5.90;99.90;;;;;;5087337;28;19912;-78
2022/02/23 00:18:43;;;;;;;;;;;5.80;99.90;;;;;;5109594;28;20219;-79
2022/02/23 00:21:08;;;;;;;;;;;5.80;99.90;;;;;;5090803;28;20191;-79
2022/02/23 00:23:34;;;;;;;;;;;5.70;99.90;;;;;;5095422;28;19915;-78
2022/02/23 00:26:00;;;;;;;;;;;5.70;99.90;;;;;;5110710;28;19920;-78
2022/02/23 00:28:25;;;;;;;;;;;5.80;99.90;;;;;;5107056;28;20215;-79
2022/02/23 00:30:51;;;;;;;;;;;5.90;99.90;;;;;;5096216;28;20037;-78
2022/02/23 00:33:16;;;;;;;;;;;5.90;99.90;;;;;;5110881;28;19923;-78
2022/02/23 00:35:42;;;;;;;;;;;5.90;99.90;;;;;;5098805;28;19915;-79
2022/02/23 00:38:07;;;;;;;;;;;5.90;99.90;;;;;;5094728;28;19915;-79
2022/02/23 00:40:33;;;;;;;;;;;5.90;99.90;;;;;;5111993;28;19915;-78
2022/02/23 00:42:58;;;;;;;;;;;5.90;99.90;;;;;;5097841;28;19915;-78
2022/02/23 00:45:24;;;;;;;;;;;6.00;99.90;;;;;;5087815;28;19912;-79
2022/02/23 00:47:50;;;;;;;;;;;5.90;99.90;;;;;;5110225;28;19920;-78
2022/02/23 00:50:16;;;;;;;;;;;5.90;99.90;;;;;;5089981;28;19920;-79
2022/02/23 00:52:41;;;;;;;;;;;5.90;99.90;;;;;;5109131;28;19938;-78
2022/02/23 00:55:07;;;;;;;;;;;5.90;99.90;;;;;;5107886;28;19919;-80
2022/02/23 00:57:33;;;;;;;;;;;5.90;99.90;;;;;;5082951;28;20287;-79
2022/02/23 00:59:58;;;;;;;;;;;5.80;99.90;;;;;;5097511;28;20230;-82
2022/02/23 01:02:24;;;;;;;;;;;5.80;99.90;;;;;;5088112;28;20294;-80
2022/02/23 01:04:50;;;;;;;;;;;5.80;99.90;;;;;;5086336;28;20310;-79
2022/02/23 01:07:16;;;;;;;;;;;5.70;99.90;;;;;;5104985;28;19966;-80
2022/02/23 01:09:41;;;;;;;;;;;5.70;99.90;;;;;;5104637;28;19912;-79
2022/02/23 01:12:07;;;;;;;;;;;5.70;99.90;;;;;;5098705;28;19963;-81
2022/02/23 01:14:33;;;;;;;;;;;5.70;99.90;;;;;;5092323;28;19912;-77
2022/02/23 01:16:58;;;;;;;;;;;5.70;99.90;;;;;;5087844;28;19966;-80
2022/02/23 01:19:24;;;;;;;;;;;5.60;99.90;;;;;;5108132;28;19918;-78
2022/02/23 01:21:49;;;;;;;;;;;5.70;99.90;;;;;;5115264;28;19952;-78
2022/02/23 01:24:15;;;;;;;;;;;5.60;99.90;;;;;;5087203;28;19919;-78
2022/02/23 01:26:41;;;;;;;;;;;5.70;99.90;;;;;;5089020;28;19923;-81
2022/02/23 01:29:06;;;;;;;;;;;5.60;99.90;;;;;;5115412;28;20329;-81
2022/02/23 01:31:32;;;;;;;;;;;5.60;99.90;;;;;;5091428;28;19919;-79
2022/02/23 01:33:57;;;;;;;;;;;5.50;99.90;;;;;;5085961;28;19923;-81
2022/02/23 01:36:23;;;;;;;;;;;5.50;99.90;;;;;;5110844;28;19908;-80
2022/02/23 01:38:48;;;;;;;;;;;5.40;99.90;;;;;;5104232;28;19927;-81
2022/02/23 01:41:17;;;;;;;;;;;5.30;99.90;;;;;;5108145;28;19989;-80
2022/02/23 01:43:44;;;;;;;;;;;5.40;99.90;;;;;;5108518;28;19939;-78
2022/02/23 01:46:09;;;;;;;;;;;5.20;99.90;;;;;;5085016;28;20196;-80
2022/02/23 01:48:35;;;;;;;;;;;5.20;99.90;;;;;;5087194;28;19927;-80
2022/02/23 01:51:00;;;;;;;;;;;5.20;99.90;;;;;;5085356;28;20314;-81
2022/02/23 01:53:26;;;;;;;;;;;5.20;99.90;;;;;;5094771;28;19970;-79
2022/02/23 01:55:51;;;;;;;;;;;5.20;99.90;;;;;;5100679;28;19916;-78
2022/02/23 01:58:17;;;;;;;;;;;5.10;99.90;;;;;;5090009;28;19942;-81
2022/02/23 02:00:42;;;;;;;;;;;5.00;99.90;;;;;;5104740;28;20321;-80
2022/02/23 02:03:09;;;;;;;;;;;5.00;99.90;;;;;;5084039;28;20319;-80
2022/02/23 02:05:34;;;;;;;;;;;5.00;99.90;;;;;;5103163;28;19924;-78
2022/02/23 02:08:00;;;;;;;;;;;5.00;99.90;;;;;;5103190;28;19912;-81
2022/02/23 02:10:25;;;;;;;;;;;5.10;99.90;;;;;;5103473;28;19919;-78
2022/02/23 02:12:51;;;;;;;;;;;5.10;99.90;;;;;;5077685;28;19912;-79
2022/02/23 02:15:16;;;;;;;;;;;5.10;99.90;;;;;;5080244;28;19919;-78
2022/02/23 02:17:42;;;;;;;;;;;5.10;99.90;;;;;;5112146;28;19997;-79
2022/02/23 02:20:08;;;;;;;;;;;5.10;99.90;;;;;;5088921;28;19916;-78
2022/02/23 02:22:34;;;;;;;;;;;5.10;99.90;;;;;;5096142;28;19992;-81
2022/02/23 02:25:00;;;;;;;;;;;5.10;99.90;;;;;;5108140;28;20328;-79
2022/02/23 02:27:25;;;;;;;;;;;5.10;99.90;;;;;;5112573;28;19912;-80
2022/02/23 02:29:51;;;;;;;;;;;5.20;99.90;;;;;;5107290;28;20010;-79
2022/02/23 02:32:17;;;;;;;;;;;5.20;99.90;;;;;;5113665;28;20315;-82
2022/02/23 02:34:43;;;;;;;;;;;5.20;99.90;;;;;;5106384;28;20299;-79
2022/02/23 02:37:08;;;;;;;;;;;5.10;99.90;;;;;;5110131;28;19920;-81
2022/02/23 02:39:34;;;;;;;;;;;5.10;99.90;;;;;;5095318;28;19912;-77
2022/02/23 02:42:00;;;;;;;;;;;5.00;99.90;;;;;;5102080;28;19912;-78
2022/02/23 02:44:26;;;;;;;;;;;5.00;99.90;;;;;;5110168;28;20218;-81
2022/02/23 02:46:52;;;;;;;;;;;4.90;99.90;;;;;;5085144;28;19920;-78
2022/02/23 02:49:17;;;;;;;;;;;4.90;99.90;;;;;;5113891;27;19954;-78
2022/02/23 02:51:43;;;;;;;;;;;4.90;99.90;;;;;;5097540;28;19912;-78
2022/02/23 02:54:09;;;;;;;;;;;4.80;99.90;;;;;;5104767;28;19926;-78
2022/02/23 02:56:34;;;;;;;;;;;4.70;99.90;;;;;;5085022;28;19916;-78
2022/02/23 02:59:01;;;;;;;;;;;4.60;99.90;;;;;;5092582;28;19920;-77
2022/02/23 03:01:28;;;;;;;;;;;4.60;99.90;;;;;;5105625;28;20306;-80
2022/02/23 03:03:54;;;;;;;;;;;4.50;99.90;;;;;;5099956;28;19912;-79
2022/02/23 03:06:20;;;;;;;;;;;4.50;99.90;;;;;;5113763;28;20481;-78
2022/02/23 03:08:46;;;;;;;;;;;4.60;99.90;;;;;;5099415;28;19960;-77
2022/02/23 03:11:12;;;;;;;;;;;4.50;99.90;;;;;;5107960;28;19916;-80
2022/02/23 03:13:37;;;;;;;;;;;4.50;99.90;;;;;;5113574;28;20045;-80
2022/02/23 03:16:03;;;;;;;;;;;4.40;99.90;;;;;;5097022;28;19916;-79
2022/02/23 03:18:29;;;;;;;;;;;4.50;99.90;;;;;;5111380;28;19919;-78
2022/02/23 03:20:54;;;;;;;;;;;4.40;99.90;;;;;;5108575;28;19930;-78
2022/02/23 03:23:20;;;;;;;;;;;4.40;99.90;;;;;;5087298;28;20306;-78
2022/02/23 03:25:45;;;;;;;;;;;4.40;99.90;;;;;;5105341;28;19916;-78
2022/02/23 03:28:11;;;;;;;;;;;4.30;99.90;;;;;;5109350;28;19916;-78
2022/02/23 03:30:38;;;;;;;;;;;4.30;99.90;;;;;;5104372;28;19923;-78
2022/02/23 03:33:05;;;;;;;;;;;4.30;99.90;;;;;;5108906;28;19946;-78
2022/02/23 03:35:30;;;;;;;;;;;4.40;99.90;;;;;;5097090;28;19915;-79
2022/02/23 03:37:59;;;;;;;;;;;4.30;99.90;;;;;;5097640;28;19915;-79
2022/02/23 03:40:25;;;;;;;;;;;4.30;99.90;;;;;;5113652;28;19919;-79
2022/02/23 03:42:51;;;;;;;;;;;4.20;99.90;;;;;;5104316;28;19916;-79
2022/02/23 03:45:17;;;;;;;;;;;4.20;99.90;;;;;;5091952;28;19978;-78
2022/02/23 03:47:43;;;;;;;;;;;4.20;99.90;;;;;;5086128;28;19959;-79
2022/02/23 03:50:09;;;;;;;;;;;4.20;99.90;;;;;;5087914;28;19959;-79
2022/02/23 03:52:34;;;;;;;;;;;4.30;99.90;;;;;;5098531;28;19912;-78
2022/02/23 03:55:00;;;;;;;;;;;4.40;99.90;;;;;;5095623;28;19941;-79
2022/02/23 03:57:25;;;;;;;;;;;4.40;99.90;;;;;;5085113;28;20366;-78
2022/02/23 03:59:51;;;;;;;;;;;4.30;99.90;;;;;;5092030;28;19912;-78
2022/02/23 04:02:17;;;;;;;;;;;4.20;99.90;;;;;;5113550;28;20003;-79
2022/02/23 04:04:42;;;;;;;;;;;4.10;99.90;;;;;;5111624;28;19911;-80
2022/02/23 04:07:08;;;;;;;;;;;3.90;99.90;;;;;;5106167;28;20007;-78
2022/02/23 04:09:33;;;;;;;;;;;3.70;99.90;;;;;;5116647;28;20187;-79
2022/02/23 04:11:59;;;;;;;;;;;3.60;99.90;;;;;;5101371;28;19920;-78
2022/02/23 04:14:24;;;;;;;;;;;3.50;99.90;;;;;;5112251;28;20215;-78
2022/02/23 04:16:50;;;;;;;;;;;3.50;99.90;;;;;;5089381;28;19908;-79
2022/02/23 04:19:16;;;;;;;;;;;3.40;99.90;;;;;;5088548;28;19912;-79
2022/02/23 04:21:41;;;;;;;;;;;3.30;99.90;;;;;;5087039;28;19993;-80
2022/02/23 04:24:07;;;;;;;;;;;3.30;99.90;;;;;;5092669;28;19920;-80
2022/02/23 04:26:35;;;;;;;;;;;3.20;99.90;;;;;;5115414;28;19920;-79
2022/02/23 04:29:01;;;;;;;;;;;3.20;99.90;;;;;;5108331;28;19912;-80
2022/02/23 04:31:28;;;;;;;;;;;3.20;99.90;;;;;;5095467;28;20303;-79
2022/02/23 04:33:54;;;;;;;;;;;3.20;99.90;;;;;;5087469;28;19908;-79
2022/02/23 04:36:20;;;;;;;;;;;3.10;99.90;;;;;;5107732;28;20076;-77
2022/02/23 04:38:45;;;;;;;;;;;3.20;99.90;;;;;;5087941;28;19908;-78
2022/02/23 04:41:11;;;;;;;;;;;3.20;99.90;;;;;;5094692;28;20038;-80
2022/02/23 04:43:36;;;;;;;;;;;3.10;99.90;;;;;;5107722;28;19916;-78
2022/02/23 04:46:08;;;;;;;;;;;3.10;99.90;;;;;;5088832;27;19922;-79
2022/02/23 04:48:34;;;;;;;;;;;3.10;99.90;;;;;;5070825;28;19920;-79
2022/02/23 04:50:59;;;;;;;;;;;3.00;99.90;;;;;;5071736;28;19919;-78
2022/02/23 04:53:25;;;;;;;;;;;3.00;99.90;;;;;;5065014;28;19912;-81
2022/02/23 04:55:51;;;;;;;;;;;3.00;99.90;;;;;;5064624;28;19913;-80
2022/02/23 04:58:16;;;;;;;;;;;3.10;99.90;;;;;;5067363;28;19917;-78
2022/02/23 05:00:42;;;;;;;;;;;3.00;99.90;;;;;;5066229;28;19946;-78
2022/02/23 05:03:07;;;;;;;;;;;3.10;99.90;;;;;;5061211;28;19970;-78
2022/02/23 05:05:33;;;;;;;;;;;3.10;99.90;;;;;;5066563;28;20528;-78
2022/02/23 05:07:58;;;;;;;;;;;3.10;99.90;;;;;;5073002;28;19966;-79
2022/02/23 05:10:25;;;;;;;;;;;3.20;99.90;;;;;;5063577;28;20107;-78
2022/02/23 05:12:50;;;;;;;;;;;3.10;99.90;;;;;;5059574;28;19913;-79
2022/02/23 05:15:16;;;;;;;;;;;3.10;99.90;;;;;;5064328;28;20403;-81
2022/02/23 05:17:41;;;;;;;;;;;3.10;99.90;;;;;;5064039;28;19916;-79
2022/02/23 05:20:07;;;;;;;;;;;3.10;99.90;;;;;;5055628;28;19913;-78
2022/02/23 05:22:33;;;;;;;;;;;3.10;99.90;;;;;;5058434;28;19921;-79
2022/02/23 05:24:59;;;;;;;;;;;3.20;99.90;;;;;;5057657;28;19927;-78
2022/02/23 05:27:24;;;;;;;;;;;3.20;99.90;;;;;;5061920;28;20013;-80
2022/02/23 05:29:50;;;;;;;;;;;3.20;99.90;;;;;;5070672;28;19912;-78
2022/02/23 05:32:15;;;;;;;;;;;3.20;99.90;;;;;;5060011;28;19920;-81
2022/02/23 05:34:41;;;;;;;;;;;3.10;99.90;;;;;;5072091;28;19916;-79
2022/02/23 05:37:07;;;;;;;;;;;3.10;99.90;;;;;;5065121;28;19920;-79
2022/02/23 05:39:32;;;;;;;;;;;3.00;99.90;;;;;;5065315;28;19913;-79
2022/02/23 05:41:58;;;;;;;;;;;3.00;99.90;;;;;;5065721;28;19925;-81
2022/02/23 05:44:23;;;;;;;;;;;3.00;99.90;;;;;;5064081;28;19916;-79
2022/02/23 05:46:49;;;;;;;;;;;3.00;99.90;;;;;;5073007;28;20041;-79
2022/02/23 05:49:15;;;;;;;;;;;3.00;99.90;;;;;;5073706;28;20263;-81
2022/02/23 05:51:41;;;;;;;;;;;3.00;99.90;;;;;;5064674;28;20225;-81
2022/02/23 05:54:07;;;;;;;;;;;2.90;99.90;;;;;;5067150;28;19917;-79
2022/02/23 05:56:33;;;;;;;;;;;2.90;99.90;;;;;;5070859;28;19913;-79
2022/02/23 05:58:58;;;;;;;;;;;2.80;99.90;;;;;;5067894;28;19912;-79
2022/02/23 06:01:24;;;;;;;;;;;2.80;99.90;;;;;;5062546;28;19917;-78
2022/02/23 06:03:50;;;;;;;;;;;2.80;99.90;;;;;;5072637;28;19962;-77
2022/02/23 06:06:15;;;;;;;;;;;2.80;99.90;;;;;;5063796;28;20301;-79
2022/02/23 06:08:41;;;;;;;;;;;2.90;99.90;;;;;;5062122;28;19924;-80
2022/02/23 06:11:08;;;;;;;;;;;2.80;99.90;;;;;;5064878;28;19912;-79
2022/02/23 06:13:34;;;;;;;;;;;2.70;99.90;;;;;;5065278;28;20307;-78
2022/02/23 06:16:01;;;;;;;;;;;2.70;99.90;;;;;;5062563;28;19956;-79
2022/02/23 06:18:26;;;;;;;;;;;2.60;99.90;;;;;;5063133;28;19923;-78
2022/02/23 06:20:54;;;;;;;;;;;2.70;99.90;;;;;;5070938;28;19912;-78
2022/02/23 06:23:20;;;;;;;;;;;2.70;99.90;;;;;;5072505;28;19924;-79
2022/02/23 06:25:46;;;;;;;;;;;2.70;99.90;;;;;;5066122;28;19978;-82
2022/02/23 06:28:11;;;;;;;;;;;2.70;99.90;;;;;;5072676;28;20326;-79
2022/02/23 06:30:38;;;;;;;;;;;2.70;99.90;;;;;;5073477;28;19948;-78
2022/02/23 06:33:03;;;;;;;;;;;2.70;99.90;;;;;;5074961;28;19962;-77
2022/02/23 06:35:29;;;;;;;;;;;2.80;99.90;;;;;;5075853;28;19921;-77
2022/02/23 06:37:54;;;;;;;;;;;2.70;99.90;;;;;;5068266;28;19924;-78
2022/02/23 06:40:21;;;;;;;;;;;2.70;99.90;;;;;;5072349;28;19917;-77
2022/02/23 06:42:47;;;;;;;;;;;2.60;99.90;;;;;;5076008;28;19917;-77
2022/02/23 06:45:12;;;;;;;;;;;2.50;99.90;;;;;;5072191;28;19923;-78
2022/02/23 06:47:38;;;;;;;;;;;2.60;99.90;;;;;;5085249;28;19924;-78
2022/02/23 06:50:04;;;;;;;;;;;2.40;99.90;;;;;;5084461;28;19912;-77
2022/02/23 06:52:30;;;;;;;;;;;2.40;99.90;;;;;;5088580;28;19912;-77
2022/02/23 06:54:56;;;;;;;;;;;2.50;99.90;;;;;;5112275;28;19998;-77
2022/02/23 06:57:22;;;;;;;;;;;2.40;99.90;;;;;;5096599;28;20014;-77
2022/02/23 06:59:48;;;;;;;;;;;2.40;99.90;;;;;;5112132;28;19908;-77
2022/02/23 07:02:13;;;;;;;;;;;2.40;99.90;;;;;;5115385;28;20011;-77
2022/02/23 07:04:39;;;;;;;;;;;2.40;99.90;;;;;;5098086;28;20018;-78
2022/02/23 07:07:05;;;;;;;;;;;2.50;99.90;;;;;;5091625;28;19911;-78
2022/02/23 07:09:30;;;;;;;;;;;2.50;99.90;;;;;;5111976;28;19964;-77
2022/02/23 07:11:56;;;;;;;;;;;2.60;99.90;;;;;;5107260;28;19916;-77
2022/02/23 07:14:21;;;;;;;;;;;2.60;99.90;;;;;;5115170;28;19911;-78
2022/02/23 07:16:47;;;;;;;;;;;2.70;99.90;;;;;;5116681;28;19954;-79
2022/02/23 07:19:12;;;;;;;;;;;2.90;99.90;;;;;;5096459;28;19956;-79
2022/02/23 07:21:38;;;;;;;;;;;2.90;99.90;;;;;;5114860;28;20532;-77
2022/02/23 07:24:04;;;;;;;;;;;3.00;99.90;;;;;;5094744;28;19912;-77
2022/02/23 07:26:30;;;;;;;;;;;3.10;99.90;;;;;;5112290;28;19916;-78
2022/02/23 07:28:55;;;;;;;;;;;3.20;99.90;;;;;;5092535;28;20041;-78
2022/02/23 07:31:21;;;;;;;;;;;3.30;99.90;;;;;;5090839;28;20314;-81
2022/02/23 07:33:47;;;;;;;;;;;3.60;99.90;;;;;;5088836;28;19915;-78
2022/02/23 07:36:13;;;;;;;;;;;3.90;99.90;;;;;;5093165;28;19963;-78
2022/02/23 07:38:40;;;;;;;;;;;4.30;99.90;;;;;;5107805;28;20495;-78
2022/02/23 07:41:06;;;;;;;;;;;5.00;99.90;;;;;;5112893;22;19928;-78
2022/02/23 07:43:33;;;;;;;;;;;5.90;99.90;;;;;;5130579;27;19930;-78
2022/02/23 07:45:59;;;;;;;;;;;6.70;99.90;;;;;;5113162;27;20474;-77
2022/02/23 07:48:25;;;;;;;;;;;7.40;99.90;;;;;;5085025;28;20311;-80
2022/02/23 07:50:50;;;;;;;;;;;8.00;99.90;;;;;;5105449;27;19912;-78
2022/02/23 07:53:16;;;;;;;;;;;8.50;99.90;;;;;;5098747;28;19923;-77
2022/02/23 07:55:41;;;;;;;;;;;9.00;99.90;;;;;;5112702;28;20269;-78
2022/02/23 07:58:07;;;;;;;;;;;8.90;99.90;;;;;;5088803;28;20195;-78
2022/02/23 08:00:33;;;;;;;;;;;9.10;99.90;;;;;;5097372;28;19916;-78
2022/02/23 08:02:59;;;;;;;;;;;9.40;99.90;;;;;;5094200;28;20010;-78
2022/02/23 08:05:24;;;;;;;;;;;9.60;99.90;;;;;;5087767;27;20538;-78
2022/02/23 08:07:50;;;;;;;;;;;9.90;99.90;;;;;;5084880;28;19916;-79
2022/02/23 08:10:16;;;;;;;;;;;10.20;99.90;;;;;;5091088;28;20022;-79
2022/02/23 08:12:42;;;;;;;;;;;10.40;99.90;;;;;;5105908;27;19915;-77
2022/02/23 08:20:39;;;;;;;;;;;10.30;99.90;;;;;;5097280;28;19919;-81
2022/02/23 08:23:05;;;;;;;;;;;10.10;99.90;;;;;;5082148;28;20420;-78
2022/02/23 08:25:30;;;;;;;;;;;10.10;99.90;;;;;;5105161;28;19959;-78
2022/02/23 08:27:58;;;;;;;;;;;9.30;99.90;;;;;;5089755;28;20200;-80
2022/02/23 08:30:24;;;;;;;;;;;8.30;99.90;;;;;;5108771;28;19920;-79
2022/02/23 08:32:49;;;;;;;;;;;7.50;99.90;;;;;;5089484;27;20256;-78
2022/02/23 08:35:15;;;;;;;;;;;7.00;99.90;;;;;;5093870;28;20230;-79
2022/02/23 08:37:41;;;;;;;;;;;7.10;99.90;;;;;;5091607;27;20240;-78
2022/02/23 08:40:07;;;;;;;;;;;8.00;99.90;;;;;;5086528;28;20290;-79
2022/02/23 08:42:32;;;;;;;;;;;9.00;99.90;;;;;;5093970;28;19920;-78
2022/02/23 08:44:58;;;;;;;;;;;9.70;99.90;;;;;;5102578;28;20230;-80
2022/02/23 08:47:25;;;;;;;;;;;9.90;99.90;;;;;;5105605;28;19922;-78
2022/02/23 08:49:52;;;;;;;;;;;10.20;99.90;;;;;;5108582;27;19912;-78
2022/02/23 08:52:18;;;;;;;;;;;10.30;99.90;;;;;;5078064;28;20211;-78
2022/02/23 08:54:43;;;;;;;;;;;10.60;99.90;;;;;;5087827;28;19920;-78
2022/02/23 08:57:09;;;;;;;;;;;10.70;99.90;;;;;;5077868;28;19915;-78
2022/02/23 08:59:35;;;;;;;;;;;10.90;99.90;;;;;;5101065;28;19923;-78
2022/02/23 09:02:01;;;;;;;;;;;10.90;99.90;;;;;;5107662;28;20720;-79
2022/02/23 09:04:29;;;;;;;;;;;11.30;99.90;;;;;;5082249;28;21512;-79
2022/02/23 09:06:55;;;;;;;;;;;11.10;99.90;;;;;;5077974;28;19927;-78
2022/02/23 09:09:20;;;;;;;;;;;10.80;99.90;;;;;;5103977;28;20330;-78
2022/02/23 09:11:47;;;;;;;;;;;10.70;99.90;;;;;;5103808;28;19922;-76
2022/02/23 09:14:13;;;;;;;;;;;10.70;99.90;;;;;;5081872;28;20219;-79
2022/02/23 09:16:40;;;;;;;;;;;10.90;99.90;;;;;;5081234;28;20018;-79
2022/02/23 09:19:05;;;;;;;;;;;10.90;99.90;;;;;;5100023;28;19916;-79
2022/02/23 09:21:31;;;;;;;;;;;11.00;99.90;;;;;;5078037;28;19966;-81
2022/02/23 09:23:59;;;;;;;;;;;11.10;99.90;;;;;;5095554;28;19919;-78
2022/02/23 09:26:24;;;;;;;;;;;11.10;99.90;;;;;;5095673;28;20297;-78
2022/02/23 09:28:50;;;;;;;;;;;11.20;99.90;;;;;;5099512;28;20019;-78
2022/02/23 09:31:17;;;;;;;;;;;11.20;99.90;;;;;;5095659;28;19919;-77
2022/02/23 09:33:43;;;;;;;;;;;11.30;99.90;;;;;;5084430;28;19959;-79
2022/02/23 09:36:09;;;;;;;;;;;11.40;99.90;;;;;;5100605;28;20274;-78
2022/02/23 09:38:35;;;;;;;;;;;11.40;99.90;;;;;;5077440;28;20338;-79
2022/02/23 09:41:04;;;;;;;;;;;11.20;99.90;;;;;;5082318;28;19924;-79
2022/02/23 09:43:30;;;;;;;;;;;11.50;99.90;;;;;;5099638;28;20401;-78
2022/02/23 09:45:56;;;;;;;;;;;11.40;99.90;;;;;;5098155;28;20011;-81
2022/02/23 09:48:23;;;;;;;;;;;11.40;99.90;;;;;;5098946;28;19915;-79
2022/02/23 09:50:50;;;;;;;;;;;11.50;99.90;;;;;;5105678;28;20006;-79
2022/02/23 09:53:16;;;;;;;;;;;11.40;99.90;;;;;;5086732;28;20285;-80
2022/02/23 09:55:42;;;;;;;;;;;11.40;99.90;;;;;;5104520;28;20006;-78
2022/02/23 09:58:07;;;;;;;;;;;11.20;99.90;;;;;;5107013;28;19916;-78
2022/02/23 10:00:33;;;;;;;;;;;11.20;99.90;;;;;;5088120;28;20310;-79
2022/02/23 10:02:59;;;;;;;;;;;11.20;99.90;;;;;;5085160;28;19916;-78
2022/02/23 10:05:25;;;;;;;;;;;11.30;99.90;;;;;;5086310;28;19916;-78
2022/02/23 10:07:50;;;;;;;;;;;11.30;99.90;;;;;;5091025;28;19960;-78
2022/02/23 10:10:32;;;;;;;;;;;11.40;99.90;;;;;;5105492;28;19937;-78
2022/02/23 10:13:02;;;;;;;;;;;11.30;99.90;;;;;;5088385;28;19919;-78
2022/02/23 10:15:29;;;;;;;;;;;11.30;99.90;;;;;;5098400;28;20326;-78
2022/02/23 10:17:54;;;;;;;;;;;11.30;99.90;;;;;;5111672;28;20239;-78
2022/02/23 10:20:34;;;;;;;;;;;11.20;99.90;;;;;;5094840;28;20000;-78
2022/02/23 10:23:03;;;;;;;;;;;11.10;99.90;;;;;;5093321;28;19920;-80
2022/02/23 10:25:32;;;;;;;;;;;11.00;99.90;;;;;;5112316;28;20394;-78
2022/02/23 10:28:08;;;;;;;;;;;10.60;99.90;;;;;;5107869;28;20320;-78
2022/02/23 10:30:34;;;;;;;;;;;10.40;99.90;;;;;;5109736;28;19912;-78
2022/02/23 10:33:18;;;;;;;;;;;10.40;99.90;;;;;;5091151;28;19958;-78
2022/02/23 10:36:05;;;;;;;;;;;10.60;99.90;;;;;;5090888;28;20211;-79
2022/02/23 10:38:33;;;;;;;;;;;10.40;99.90;;;;;;5093888;28;20017;-79
2022/02/23 10:41:00;;;;;;;;;;;10.20;99.90;;;;;;5091951;28;19916;-79
2022/02/23 10:43:36;;;;;;;;;;;10.10;99.90;;;;;;5109011;28;19919;-79
2022/02/23 10:46:16;;;;;;;;;;;9.90;99.90;;;;;;5086132;28;19919;-80
2022/02/23 10:48:45;;;;;;;;;;;9.70;99.90;;;;;;5090239;28;19930;-79
2022/02/23 10:51:32;;;;;;;;;;;9.70;99.90;;;;;;5103876;28;19920;-80
2022/02/23 10:54:11;;;;;;;;;;;9.70;99.90;;;;;;5086244;28;20007;-79
2022/02/23 10:56:37;;;;;;;;;;;9.60;99.90;;;;;;5095103;28;19995;-80
2022/02/23 10:59:15;;;;;;;;;;;9.60;99.90;;;;;;5077383;28;19923;-79
2022/02/23 11:01:45;;;;;;;;;;;9.60;99.90;;;;;;5082462;28;20007;-79
2022/02/23 11:04:10;;;;;;;;;;;9.60;99.90;;;;;;5103915;28;19912;-78
2022/02/23 11:06:37;;;;;;;;;;;9.50;99.90;;;;;;5106860;28;19920;-89
2022/02/23 11:09:03;;;;;;;;;;;9.50;99.90;;;;;;5108539;28;19916;-91
2022/02/23 11:11:29;;;;;;;;;;;9.60;99.90;;;;;;5101530;28;19919;-89
2022/02/23 11:13:56;;;;;;;;;;;9.60;99.90;;;;;;5087725;28;19945;-88
2022/02/23 11:16:23;;;;;;;;;;;9.70;99.90;;;;;;5109955;28;19915;-87
2022/02/23 11:18:49;;;;;;;;;;;9.80;99.90;;;;;;5107091;28;19920;-89
2022/02/23 11:21:16;;;;;;;;;;;9.90;99.90;;;;;;5086859;27;20561;-90
2022/02/23 11:23:43;;;;;;;;;;;10.00;99.90;;;;;;5114744;27;19911;-89
2022/02/23 11:26:09;;;;;;;;;;;9.90;99.90;;;;;;5101483;28;19919;-89
2022/02/23 11:28:40;;;;;;;;;;;10.00;99.90;;;;;;5093184;28;19919;-88
2022/02/23 11:31:13;;;;;;;;;;;10.00;99.90;;;;;;5099320;28;19933;-89
2022/02/23 11:33:57;;;;;;;;;;;10.00;99.90;;;;;;5099500;28;19935;-88
2022/02/23 11:36:23;;;;;;;;;;;10.10;99.90;;;;;;5085959;28;19911;-87
2022/02/23 11:38:49;;;;;;;;;;;10.30;99.90;;;;;;5099701;28;20298;-89
2022/02/23 11:41:25;;;;;;;;;;;10.40;99.90;;;;;;5098286;28;19999;-89
2022/02/23 11:44:09;;;;;;;;;;;10.50;99.90;;;;;;5098609;28;19964;-86
2022/02/23 11:46:56;;;;;;;;;;;10.50;99.90;;;;;;5090150;28;19916;-87
2022/02/23 11:49:26;;;;;;;;;;;10.50;99.90;;;;;;5116512;28;19919;-87
2022/02/23 11:52:03;;;;;;;;;;;10.40;99.90;;;;;;5105438;28;19969;-87
2022/02/23 11:54:47;;;;;;;;;;;10.60;99.90;;;;;;5107309;28;19916;-89
2022/02/23 11:57:33;;;;;;;;;;;10.40;99.90;;;;;;5085894;28;20285;-89
2022/02/23 11:59:58;;;;;;;;;;;10.50;99.90;;;;;;5110170;28;19922;-89
2022/02/23 12:02:28;;;;;;;;;;;10.60;99.90;;;;;;5099734;28;20366;-88
2022/02/23 12:04:56;;;;;;;;;;;10.70;99.90;;;;;;5113486;28;19916;-86
2022/02/23 12:07:21;;;;;;;;;;;10.80;99.90;;;;;;5100000;28;19916;-87
2022/02/23 12:09:55;;;;;;;;;;;10.70;99.90;;;;;;5118499;28;19957;-88
2022/02/23 12:12:37;;;;;;;;;;;10.70;99.90;;;;;;5111142;28;19969;-88
2022/02/23 12:15:23;;;;;;;;;;;10.80;99.90;;;;;;5101219;28;20374;-88
2022/02/23 12:17:50;;;;;;;;;;;11.00;99.90;;;;;;5092306;28;19919;-88
2022/02/23 12:20:34;;;;;;;;;;;11.10;99.90;;;;;;5095753;28;19960;-87
2022/02/23 12:23:20;;;;;;;;;;;11.00;99.90;;;;;;5116790;28;20627;-85
2022/02/23 12:25:55;;;;;;;;;;;10.80;99.90;;;;;;5086061;27;19958;-83
2022/02/23 12:28:21;;;;;;;;;;;10.90;99.90;;;;;;5097355;28;20336;-88
2022/02/23 12:30:59;;;;;;;;;;;11.00;99.90;;;;;;5098367;28;19951;-88
2022/02/23 12:33:24;;;;;;;;;;;11.00;99.90;;;;;;5095395;28;19919;-88
2022/02/23 12:35:50;;;;;;;;;;;11.00;99.90;;;;;;5098313;28;19981;-89
2022/02/23 12:38:22;;;;;;;;;;;11.10;99.90;;;;;;5098602;28;20213;-85
2022/02/23 12:40:49;;;;;;;;;;;11.10;99.90;;;;;;5095749;28;19969;-85
2022/02/23 12:43:15;;;;;;;;;;;11.10;99.90;;;;;;5094176;28;19912;-83
2022/02/23 12:45:47;;;;;;;;;;;11.10;99.90;;;;;;5096275;28;19927;-84
2022/02/23 12:48:12;;;;;;;;;;;11.00;99.90;;;;;;5094871;28;20226;-86
2022/02/23 12:50:38;;;;;;;;;;;11.10;99.90;;;;;;5097601;28;19912;-87
2022/02/23 12:53:03;;;;;;;;;;;11.00;99.90;;;;;;5113851;28;19916;-87
2022/02/23 12:55:32;;;;;;;;;;;11.00;99.90;;;;;;5110682;28;20312;-85
2022/02/23 12:57:58;;;;;;;;;;;11.00;99.90;;;;;;5092186;28;19915;-87
2022/02/23 13:00:24;;;;;;;;;;;11.00;99.90;;;;;;5095164;27;20306;-89
2022/02/23 13:02:50;;;;;;;;;;;11.00;99.90;;;;;;5099254;28;20282;-86
2022/02/23 13:05:15;;;;;;;;;;;11.00;99.90;;;;;;5108886;28;19919;-87
2022/02/23 13:07:41;;;;;;;;;;;11.00;99.90;;;;;;5093524;28;20309;-84
2022/02/23 13:10:07;;;;;;;;;;;11.10;99.90;;;;;;5111390;28;19916;-87
2022/02/23 13:12:34;;;;;;;;;;;11.20;99.90;;;;;;5095686;28;19935;-84
2022/02/23 13:14:59;;;;;;;;;;;11.20;99.90;;;;;;5115062;28;20001;-86
2022/02/23 13:17:27;;;;;;;;;;;11.20;99.90;;;;;;5096181;28;20044;-89
2022/02/23 13:19:52;;;;;;;;;;;11.20;99.90;;;;;;5096289;28;19964;-89
2022/02/23 13:22:19;;;;;;;;;;;11.20;99.90;;;;;;5091295;28;19912;-89
2022/02/23 13:24:46;;;;;;;;;;;11.10;99.90;;;;;;5091696;28;19915;-88
2022/02/23 13:27:16;;;;;;;;;;;11.00;99.90;;;;;;5089805;28;20368;-86
2022/02/23 13:29:43;;;;;;;;;;;11.00;99.90;;;;;;5083708;28;23286;-85
2022/02/23 13:32:11;;;;;;;;;;;11.00;99.90;;;;;;5113825;28;19915;-85
2022/02/23 13:34:38;;;;;;;;;;;11.00;99.90;;;;;;5106724;28;19927;-89
2022/02/23 13:37:14;;;;;;;;;;;11.00;99.90;;;;;;5089523;28;19912;-86
2022/02/23 13:39:44;;;;;;;;;;;10.90;99.90;;;;;;5107884;28;19911;-85
2022/02/23 13:42:13;;;;;;;;;;;10.90;99.90;;;;;;5096525;28;19924;-87
2022/02/23 13:44:43;;;;;;;;;;;10.90;99.90;;;;;;5091623;28;19936;-89
2022/02/23 13:47:10;;;;;;;;;;;10.90;99.90;;;;;;5109890;28;20263;-87
2022/02/23 13:49:53;;;;;;;;;;;10.80;99.90;;;;;;5096663;28;20000;-88
2022/02/23 13:52:19;;;;;;;;;;;10.80;99.90;;;;;;5092417;28;20526;-86
2022/02/23 13:54:55;;;;;;;;;;;10.80;99.90;;;;;;5093744;28;20002;-86
2022/02/23 13:57:20;;;;;;;;;;;10.60;99.90;;;;;;5092993;28;19915;-86
2022/02/23 13:59:46;;;;;;;;;;;10.60;99.90;;;;;;5084730;28;19919;-85
2022/02/23 14:02:12;;;;;;;;;;;10.70;99.90;;;;;;5111403;28;19912;-88
2022/02/23 14:04:39;;;;;;;;;;;10.70;99.90;;;;;;5091720;28;19957;-87
2022/02/23 14:07:05;;;;;;;;;;;10.70;99.90;;;;;;5077943;28;20313;-88
2022/02/23 14:09:34;;;;;;;;;;;10.80;99.90;;;;;;5078675;28;20012;-80
2022/02/23 14:12:00;;;;;;;;;;;10.80;99.90;;;;;;5085564;28;20306;-80
2022/02/23 14:14:25;;;;;;;;;;;10.80;99.90;;;;;;5100369;28;19965;-81
2022/02/23 14:16:51;;;;;;;;;;;10.80;99.90;;;;;;5104295;28;19915;-88
2022/02/23 14:19:25;;;;;;;;;;;10.70;99.90;;;;;;5086539;28;19958;-86
2022/02/23 14:21:55;;;;;;;;;;;10.70;99.90;;;;;;5086980;28;20269;-84
2022/02/23 14:24:27;;;;;;;;;;;10.60;99.90;;;;;;5089388;28;19920;-85
2022/02/23 14:26:57;;;;;;;;;;;10.60;99.90;;;;;;5082986;28;19916;-89
2022/02/23 14:29:24;;;;;;;;;;;10.60;99.90;;;;;;5103138;28;19927;-90
2022/02/23 14:31:54;;;;;;;;;;;10.40;99.90;;;;;;5090039;28;19960;-88